Pagina principale
METAR-TAF:

METAR-TAF

Aeroporti :

Montichiari

Brescia, Italia

latitudine: 45-24-02N, longitudine: 010-18-59E, altezza: 104 m

Osservazione

Il bollettino è stato emesso 40 minuti fa, alle 12:50 UTC
Vento 4 kt da sud-ovest
Temperature 23°C
Umidità 50%
Pressione 1018 hPa
Visibilità 10 km o più
nessuna nube inferiore a 1500 m e nessun cumulonembo

METAR: LIPO 191250Z 23004KT CAVOK 23/12 Q1018

Ora: 15:30 (13:30 UTC)

Previsione

Il bollettino è stato emesso 2 ore e 30 minuti fa, alle 11:00 UTC
Previsione valida dal 19 alle 12 UTC al 20 alle 12 UTC
Vento 5 kt da direzioni variabili
Visibilità 10 km o più
nessuna nube inferiore a 1500 m e nessun cumulonembo
Temporaneamente
dal 20 alle 02 UTC al 20 alle 06 UTC
Visibilità: 3000 m
foschia

TAF: LIPO 191100Z 1912/2012 VRB05KT CAVOK TEMPO 2002/2006 3000 BR

Osservazioni e previsioni meteorologiche di più di 4000 aeroporti (messaggi METAR e TAF).

Le stazioni disponibili sono rappresentate dai dischi gialli e rossi sulla carta.

Puntare il mouse per vedere il nome della stazione.

Clicca sopra per visualizzare le osservazioni e previsioni meteorologiche.

Per cambiare la mappa : fare clic sui pulsanti verdi con una croce nera per ingrandire, il pulsante verde con un trattino per diminuire, o sulla freccia verde per le mappe adiacenti.


METAR-TAF: